createdAt,value
2023-03-24T00:02:29.239Z,99869.84
2023-03-24T00:05:03.943Z,99862.06
2023-03-24T00:07:38.504Z,99870.59
2023-03-24T00:10:15.063Z,99860.59
2023-03-24T00:12:50.515Z,99854.63
2023-03-24T00:15:24.131Z,99856.34
2023-03-24T00:17:58.441Z,99848.50
2023-03-24T00:20:33.059Z,99850.31
2023-03-24T00:23:06.552Z,99850.56
2023-03-24T00:25:40.147Z,99844.03
2023-03-24T00:28:14.604Z,99845.56
2023-03-24T00:30:53.175Z,99842.63
2023-03-24T00:33:26.476Z,99846.25
2023-03-24T00:35:59.987Z,99838.38
2023-03-24T00:38:34.393Z,99843.19
2023-03-24T00:41:08.795Z,99842.38
2023-03-24T00:43:43.077Z,99835.47
2023-03-24T00:46:27.563Z,99836.59
2023-03-24T00:49:05.817Z,99835.44
2023-03-24T00:51:40.970Z,99834.88
2023-03-24T00:54:14.148Z,99830.44
2023-03-24T00:56:49.756Z,99834.13
2023-03-24T00:59:24.512Z,99841.13
2023-03-24T01:01:58.034Z,99840.81
2023-03-24T01:04:31.746Z,99839.50
2023-03-24T01:07:05.686Z,99840.00
2023-03-24T01:09:38.879Z,99825.78
2023-03-24T01:12:13.575Z,99823.69
2023-03-24T01:14:48.777Z,99833.78
2023-03-24T01:17:25.561Z,99827.09
2023-03-24T01:19:58.816Z,99833.03
2023-03-24T01:22:32.116Z,99826.97
2023-03-24T01:25:06.005Z,99822.94
2023-03-24T01:27:39.869Z,99823.59
2023-03-24T01:30:15.360Z,99820.84
2023-03-24T01:32:48.597Z,99818.78
2023-03-24T01:35:22.362Z,99826.44
2023-03-24T01:37:55.480Z,99827.63
2023-03-24T01:40:30.048Z,99824.72
2023-03-24T01:43:03.292Z,99817.69
2023-03-24T01:45:55.987Z,99817.59
2023-03-24T01:48:31.870Z,99816.56
2023-03-24T01:51:07.254Z,99812.25
2023-03-24T01:53:43.554Z,99815.28
2023-03-24T01:56:16.721Z,99809.91
2023-03-24T01:58:52.924Z,99811.19
2023-03-24T02:01:30.258Z,99810.63
2023-03-24T02:04:04.924Z,99813.69
2023-03-24T02:06:41.236Z,99816.66
2023-03-24T02:09:15.544Z,99816.50
2023-03-24T02:11:55.021Z,99810.81
2023-03-24T02:14:28.528Z,99809.47
2023-03-24T02:17:19.603Z,99809.47
2023-03-24T02:20:11.314Z,99813.16
2023-03-24T02:23:02.631Z,99805.03
2023-03-24T02:25:52.576Z,99811.56
2023-03-24T02:28:33.264Z,99818.91
2023-03-24T02:31:21.798Z,99816.66
2023-03-24T02:34:13.533Z,99813.41
2023-03-24T02:36:59.538Z,99816.59
2023-03-24T02:39:44.238Z,99815.88
2023-03-24T02:42:24.569Z,99819.22
2023-03-24T02:45:03.519Z,99821.06
2023-03-24T02:47:40.094Z,99822.00
2023-03-24T02:50:18.453Z,99825.91
2023-03-24T02:52:54.192Z,99826.78
2023-03-24T02:55:30.456Z,99831.44
2023-03-24T02:58:05.261Z,99845.69
2023-03-24T03:00:42.006Z,99846.06
2023-03-24T03:03:18.636Z,99848.28
2023-03-24T03:05:54.417Z,99851.91
2023-03-24T03:08:29.932Z,99860.06
2023-03-24T03:11:06.646Z,99862.75
2023-03-24T03:13:41.763Z,99868.91
2023-03-24T03:16:17.561Z,99864.50
2023-03-24T03:18:52.634Z,99860.50
2023-03-24T03:21:26.885Z,99857.84
2023-03-24T03:24:03.281Z,99857.50
2023-03-24T03:26:37.923Z,99859.22
2023-03-24T03:29:13.359Z,99852.75
2023-03-24T03:31:51.758Z,99859.41
2023-03-24T03:34:29.420Z,99858.47
2023-03-24T03:37:06.150Z,99862.13
2023-03-24T03:39:42.263Z,99797.44
2023-03-24T03:42:16.833Z,99874.91
2023-03-24T03:44:49.769Z,99877.47
2023-03-24T03:47:23.806Z,99889.50
2023-03-24T03:49:57.282Z,99892.91
2023-03-24T03:52:30.669Z,99889.41
2023-03-24T03:55:03.977Z,99885.38
2023-03-24T03:57:38.558Z,99861.50
2023-03-24T04:00:15.825Z,99855.66
2023-03-24T04:02:57.228Z,99849.63
2023-03-24T04:05:31.555Z,99841.03
2023-03-24T04:08:26.346Z,99823.25
2023-03-24T04:11:20.114Z,99834.13
2023-03-24T04:14:01.500Z,99829.38
2023-03-24T04:16:40.089Z,99825.03
2023-03-24T04:19:16.888Z,99830.56
2023-03-24T04:21:58.781Z,99835.59
2023-03-24T04:24:41.028Z,99838.22
2023-03-24T04:27:22.066Z,99835.00
2023-03-24T04:30:01.147Z,99836.09
2023-03-24T04:32:41.458Z,99836.50
2023-03-24T04:35:26.435Z,99834.09
2023-03-24T04:38:03.534Z,99824.53
2023-03-24T04:40:41.991Z,99839.00
2023-03-24T04:43:17.849Z,99832.44
2023-03-24T04:45:52.955Z,99837.63
2023-03-24T04:48:26.655Z,99848.28
2023-03-24T04:51:00.759Z,99847.59
2023-03-24T04:53:33.648Z,99839.09
2023-03-24T04:56:15.118Z,99836.75
2023-03-24T04:58:48.522Z,99840.94
2023-03-24T05:01:23.093Z,99838.03
2023-03-24T05:03:56.326Z,99838.22
2023-03-24T05:06:29.465Z,99842.03
2023-03-24T05:09:02.483Z,99845.53
2023-03-24T05:11:35.448Z,99841.66
2023-03-24T05:14:09.084Z,99841.47
2023-03-24T05:16:43.871Z,99842.59
2023-03-24T05:19:17.397Z,99849.16
2023-03-24T05:21:50.343Z,99846.75
2023-03-24T05:24:23.470Z,99848.00
2023-03-24T05:26:56.450Z,99850.88
2023-03-24T05:29:29.755Z,99863.97
2023-03-24T05:32:04.354Z,99860.59
2023-03-24T05:34:37.295Z,99866.28
2023-03-24T05:37:13.007Z,99871.19
2023-03-24T05:39:46.038Z,99868.78
2023-03-24T05:42:19.120Z,99876.25
2023-03-24T05:44:52.328Z,99875.19
2023-03-24T05:47:27.344Z,99871.78
2023-03-24T05:50:00.571Z,99870.25
2023-03-24T05:52:33.437Z,99879.25
2023-03-24T05:55:07.613Z,99885.31
2023-03-24T05:57:41.197Z,99881.34
2023-03-24T06:00:17.286Z,99883.63
2023-03-24T06:02:52.201Z,99891.53
2023-03-24T06:05:25.267Z,99896.09
2023-03-24T06:08:01.413Z,99895.94
2023-03-24T06:10:36.948Z,99896.50
2023-03-24T06:13:10.047Z,99894.72
2023-03-24T06:15:43.261Z,99900.25
2023-03-24T06:18:17.866Z,99891.09
2023-03-24T06:20:51.180Z,99892.50
2023-03-24T06:23:25.973Z,99892.06
2023-03-24T06:26:01.692Z,99898.34
2023-03-24T06:28:34.818Z,99898.97
2023-03-24T06:31:14.743Z,99901.94
2023-03-24T06:33:49.312Z,99902.03
2023-03-24T06:36:23.628Z,99911.16
2023-03-24T06:38:57.020Z,99913.16
2023-03-24T06:41:30.019Z,99906.13
2023-03-24T06:44:03.060Z,99916.28
2023-03-24T06:46:36.380Z,99915.00
2023-03-24T06:49:11.074Z,99903.50
2023-03-24T06:51:44.194Z,99909.00
2023-03-24T06:54:17.652Z,99908.53
2023-03-24T06:56:50.936Z,99904.88
2023-03-24T06:59:24.864Z,99904.81
2023-03-24T07:01:57.818Z,99908.84
2023-03-24T07:04:36.582Z,99905.16
2023-03-24T07:07:35.804Z,99909.78
2023-03-24T07:10:03.808Z,99905.19
2023-03-24T07:12:40.105Z,99895.78
2023-03-24T07:15:13.516Z,99899.66
2023-03-24T07:17:47.102Z,99901.84
2023-03-24T07:20:22.078Z,99900.91
2023-03-24T07:22:56.695Z,99903.59
2023-03-24T07:25:29.776Z,99903.59
2023-03-24T07:28:03.048Z,99902.97
2023-03-24T07:30:40.427Z,99903.81
2023-03-24T07:33:14.142Z,99909.41
2023-03-24T07:35:49.093Z,99903.81
2023-03-24T07:38:22.476Z,99903.31
2023-03-24T07:40:55.846Z,99898.81
2023-03-24T07:43:28.854Z,99897.38
2023-03-24T07:46:02.246Z,99897.59
2023-03-24T07:48:35.538Z,99895.88
2023-03-24T07:51:09.855Z,99894.41
2023-03-24T07:53:45.777Z,99889.47
2023-03-24T07:56:18.985Z,99887.59
2023-03-24T07:58:52.022Z,99878.94
2023-03-24T08:01:24.870Z,99879.06
2023-03-24T08:03:58.504Z,99871.69
2023-03-24T08:06:33.100Z,99878.06
2023-03-24T08:09:06.859Z,99875.22
2023-03-24T08:11:40.520Z,99877.22
2023-03-24T08:14:13.897Z,99871.63
2023-03-24T08:16:47.547Z,99870.94
2023-03-24T08:19:20.673Z,99868.78
2023-03-24T08:21:55.128Z,99866.88
2023-03-24T08:24:28.739Z,99861.72
2023-03-24T08:27:06.140Z,99857.22
2023-03-24T08:29:39.265Z,99855.00
2023-03-24T08:32:12.200Z,99849.72
2023-03-24T08:34:45.196Z,99847.25
2023-03-24T08:37:19.896Z,99843.63
2023-03-24T08:39:53.052Z,99849.28
2023-03-24T08:42:26.352Z,99851.81
2023-03-24T08:44:59.533Z,99847.56
2023-03-24T08:47:32.520Z,99844.06
2023-03-24T08:50:06.956Z,99841.16
2023-03-24T08:52:42.072Z,99846.50
2023-03-24T08:55:15.202Z,99838.09
2023-03-24T08:57:48.924Z,99834.72
2023-03-24T09:00:22.850Z,99833.00
2023-03-24T09:02:56.659Z,99832.56
2023-03-24T09:05:43.288Z,99827.00
2023-03-24T09:08:19.936Z,99824.31
2023-03-24T09:10:53.103Z,99822.34
2023-03-24T09:13:26.577Z,99814.75
2023-03-24T09:16:02.166Z,99816.16
2023-03-24T09:18:35.681Z,99813.34
2023-03-24T09:21:09.339Z,99825.75
2023-03-24T09:23:44.356Z,99814.88
2023-03-24T09:26:17.821Z,99816.03
2023-03-24T09:28:51.099Z,99813.06
2023-03-24T09:31:24.483Z,99813.91
2023-03-24T09:33:58.039Z,99813.75
2023-03-24T09:36:31.290Z,99806.00
2023-03-24T09:39:06.254Z,99802.34
2023-03-24T09:41:39.229Z,99802.09
2023-03-24T09:44:17.113Z,99803.78
2023-03-24T09:46:52.044Z,99796.19
2023-03-24T09:49:26.043Z,99789.53
2023-03-24T09:52:04.572Z,99793.31
2023-03-24T09:54:42.446Z,99786.00
2023-03-24T09:57:18.037Z,99787.41
2023-03-24T09:59:51.126Z,99788.41
2023-03-24T10:02:24.497Z,99791.59
2023-03-24T10:04:57.639Z,99790.03
2023-03-24T10:07:34.632Z,99790.41
2023-03-24T10:10:19.292Z,99787.28
2023-03-24T10:12:54.219Z,99783.53
2023-03-24T10:15:37.655Z,99780.78
2023-03-24T10:18:18.059Z,99772.06
2023-03-24T10:20:53.769Z,99772.13
2023-03-24T10:23:30.953Z,99768.72
2023-03-24T10:26:11.025Z,99766.81
2023-03-24T10:28:45.803Z,99768.31
2023-03-24T10:31:20.858Z,99766.31
2023-03-24T10:33:53.967Z,99762.97
2023-03-24T10:36:27.919Z,99754.72
2023-03-24T10:39:09.530Z,99759.44
2023-03-24T10:41:54.614Z,99757.19
2023-03-24T10:44:28.270Z,99759.53
2023-03-24T10:47:04.471Z,99759.34
2023-03-24T10:49:38.096Z,99759.34
2023-03-24T10:52:11.305Z,99753.22
2023-03-24T10:54:54.326Z,99750.47
2023-03-24T10:57:31.885Z,99748.66
2023-03-24T11:00:14.872Z,99747.56
2023-03-24T11:02:55.517Z,99690.84
2023-03-24T11:05:30.670Z,99737.59
2023-03-24T11:08:15.872Z,99733.53
2023-03-24T11:10:49.498Z,99734.22
2023-03-24T11:13:30.082Z,99719.03
2023-03-24T11:16:10.245Z,99724.88
2023-03-24T11:18:56.175Z,99719.50
2023-03-24T11:21:29.585Z,99706.09
2023-03-24T11:24:04.170Z,99705.84
2023-03-24T11:26:39.220Z,99696.47
2023-03-24T11:29:16.852Z,99694.09
2023-03-24T11:31:52.727Z,99688.50
2023-03-24T11:34:30.265Z,99685.13
2023-03-24T11:37:04.660Z,99681.34
2023-03-24T11:39:38.975Z,99678.00
2023-03-24T11:42:16.777Z,99672.22
2023-03-24T11:44:52.583Z,99679.31
2023-03-24T11:47:29.256Z,99664.50
2023-03-24T11:50:15.768Z,99659.03
2023-03-24T11:52:52.546Z,99659.44
2023-03-24T11:55:29.558Z,99651.09
2023-03-24T11:58:04.175Z,99652.03
2023-03-24T12:00:43.071Z,99650.44
2023-03-24T12:03:34.132Z,99639.53
2023-03-24T12:06:15.820Z,99634.75
2023-03-24T12:08:53.701Z,99631.44
2023-03-24T12:11:34.540Z,99619.97
2023-03-24T12:14:10.430Z,99617.53
2023-03-24T12:16:51.916Z,99618.47
2023-03-24T12:19:33.518Z,99610.16
2023-03-24T12:22:11.862Z,99609.25
2023-03-24T12:25:08.145Z,99605.09
2023-03-24T12:27:47.519Z,99600.19
2023-03-24T12:30:26.561Z,99590.72
2023-03-24T12:33:14.604Z,99593.50
2023-03-24T12:35:51.991Z,99589.44
2023-03-24T12:38:37.017Z,99591.03
2023-03-24T12:41:25.203Z,99593.13
2023-03-24T12:44:08.838Z,99586.06
2023-03-24T12:46:49.864Z,99530.16
2023-03-24T12:49:32.281Z,99581.94
2023-03-24T12:52:22.134Z,99570.03
2023-03-24T12:55:04.259Z,99571.03
2023-03-24T12:57:40.785Z,99571.72
2023-03-24T13:00:17.505Z,99562.41
2023-03-24T13:02:53.428Z,99568.66
2023-03-24T13:05:31.803Z,99565.66
2023-03-24T13:08:08.277Z,99555.59
2023-03-24T13:10:42.151Z,99564.13
2023-03-24T13:13:19.353Z,99548.84
2023-03-24T13:15:57.222Z,99549.88
2023-03-24T13:18:32.502Z,99552.53
2023-03-24T13:21:08.984Z,99543.13
2023-03-24T13:23:44.930Z,99545.81
2023-03-24T13:26:28.993Z,99537.78
2023-03-24T13:29:21.952Z,99533.91
2023-03-24T13:31:57.565Z,99530.19
2023-03-24T13:34:32.694Z,99533.41
2023-03-24T13:37:08.245Z,99532.38
2023-03-24T13:39:43.844Z,99538.44
2023-03-24T13:42:29.468Z,99526.16
2023-03-24T13:45:03.976Z,99525.63
2023-03-24T13:47:50.884Z,99521.28
2023-03-24T13:50:25.712Z,99516.25
2023-03-24T13:53:05.948Z,99515.56
2023-03-24T13:55:40.863Z,99507.88
2023-03-24T13:58:18.949Z,99504.81
2023-03-24T14:01:17.062Z,99510.19
2023-03-24T14:04:11.832Z,99506.84
2023-03-24T14:06:46.562Z,99505.34
2023-03-24T14:09:22.719Z,99491.56
2023-03-24T14:12:22.296Z,99498.47
2023-03-24T14:15:17.788Z,99493.56
2023-03-24T14:17:54.931Z,99499.13
2023-03-24T14:20:30.438Z,99500.13
2023-03-24T14:23:04.515Z,99490.72
2023-03-24T14:25:39.189Z,99486.00
2023-03-24T14:28:19.661Z,99487.00
2023-03-24T14:31:02.269Z,99483.31
2023-03-24T14:33:35.975Z,99483.16
2023-03-24T14:36:12.282Z,99479.47
2023-03-24T14:38:46.040Z,99476.59
2023-03-24T14:41:28.544Z,99478.13
2023-03-24T14:44:02.098Z,99467.34
2023-03-24T14:46:38.457Z,99463.16
2023-03-24T14:49:16.712Z,99462.16
2023-03-24T14:51:54.034Z,99466.19
2023-03-24T14:54:31.069Z,99459.97
2023-03-24T14:57:06.682Z,99455.09
2023-03-24T14:59:43.131Z,99459.97
2023-03-24T15:02:26.407Z,99456.94
2023-03-24T15:05:18.864Z,99459.44
2023-03-24T15:08:04.471Z,99454.75
2023-03-24T15:10:39.637Z,99449.22
2023-03-24T15:13:34.646Z,99447.88
2023-03-24T15:16:19.122Z,99448.38
2023-03-24T15:19:01.371Z,99446.53
2023-03-24T15:21:36.973Z,99444.66
2023-03-24T15:24:26.755Z,99440.66
2023-03-24T15:27:18.351Z,99440.66
2023-03-24T15:29:55.214Z,99440.66
2023-03-24T15:32:32.416Z,99436.28
2023-03-24T15:35:07.148Z,99439.47
2023-03-24T15:37:43.047Z,99432.91
2023-03-24T15:40:36.172Z,99434.41
2023-03-24T15:43:19.180Z,99436.44
2023-03-24T15:46:04.796Z,99440.66
2023-03-24T15:48:47.887Z,99436.44
2023-03-24T15:51:21.142Z,99436.59
2023-03-24T15:53:59.102Z,99439.31
2023-03-24T15:56:34.407Z,99438.28
2023-03-24T15:59:15.593Z,99441.28
2023-03-24T16:01:50.456Z,99442.94
2023-03-24T16:04:24.874Z,99446.66
2023-03-24T16:06:58.832Z,99438.09
2023-03-24T16:09:38.083Z,99443.97
2023-03-24T16:12:14.355Z,99447.94
2023-03-24T16:14:48.203Z,99445.72
2023-03-24T16:17:21.704Z,99452.28
2023-03-24T16:19:56.035Z,99457.16
2023-03-24T16:22:29.203Z,99457.28
2023-03-24T16:25:02.406Z,99459.31
2023-03-24T16:27:35.530Z,99458.06
2023-03-24T16:30:18.730Z,99457.53
2023-03-24T16:32:51.779Z,99463.66
2023-03-24T16:35:27.051Z,99466.13
2023-03-24T16:38:00.330Z,99465.06
2023-03-24T16:40:36.845Z,99465.56
2023-03-24T16:43:09.724Z,99472.03
2023-03-24T16:45:43.330Z,99472.34
2023-03-24T16:48:17.010Z,99468.50
2023-03-24T16:50:53.530Z,99480.44
2023-03-24T16:53:26.527Z,99478.44
2023-03-24T16:55:59.402Z,99481.63
2023-03-24T16:58:32.256Z,99479.94
2023-03-24T17:01:24.052Z,99488.84
2023-03-24T17:03:58.117Z,99481.22
2023-03-24T17:06:33.555Z,99485.88
2023-03-24T17:09:08.252Z,99487.63
2023-03-24T17:11:42.898Z,99485.03
2023-03-24T17:14:16.672Z,99484.81
2023-03-24T17:16:53.101Z,99482.28
2023-03-24T17:19:27.144Z,99482.81
2023-03-24T17:22:02.588Z,99486.97
2023-03-24T17:24:38.090Z,99485.94
2023-03-24T17:27:12.006Z,99486.41
2023-03-24T17:29:45.088Z,99495.44
2023-03-24T17:32:19.372Z,99497.44
2023-03-24T17:34:54.120Z,99491.31
2023-03-24T17:37:29.793Z,99495.03
2023-03-24T17:40:07.953Z,99498.72
2023-03-24T17:42:42.894Z,99502.03
2023-03-24T17:45:18.220Z,99494.25
2023-03-24T17:47:51.430Z,99503.88
2023-03-24T17:50:25.582Z,99503.88
2023-03-24T17:53:01.397Z,99508.03
2023-03-24T17:55:34.267Z,99509.47
2023-03-24T17:58:08.507Z,99510.03
2023-03-24T18:00:41.742Z,99514.56
2023-03-24T18:03:17.515Z,99509.22
2023-03-24T18:05:51.233Z,99516.31
2023-03-24T18:08:26.518Z,99503.22
2023-03-24T18:11:03.801Z,99506.50
2023-03-24T18:13:37.321Z,99513.31
2023-03-24T18:16:20.615Z,99510.94
2023-03-24T18:18:55.049Z,99518.69
2023-03-24T18:21:28.398Z,99519.94
2023-03-24T18:24:03.181Z,99518.25
2023-03-24T18:26:36.295Z,99518.16
2023-03-24T18:29:10.059Z,99518.00
2023-03-24T18:31:43.137Z,99518.28
2023-03-24T18:34:16.807Z,99508.72
2023-03-24T18:36:50.105Z,99514.94
2023-03-24T18:39:24.923Z,99517.34
2023-03-24T18:41:57.844Z,99522.81
2023-03-24T18:44:34.593Z,99518.31
2023-03-24T18:47:07.721Z,99517.09
2023-03-24T18:49:41.213Z,99511.59
2023-03-24T18:52:19.176Z,99512.13
2023-03-24T18:54:54.288Z,99510.63
2023-03-24T18:57:27.578Z,99511.44
2023-03-24T19:00:01.298Z,99509.78
2023-03-24T19:02:34.465Z,99503.44
2023-03-24T19:05:10.080Z,99513.59
2023-03-24T19:07:45.899Z,99499.50
2023-03-24T19:10:20.693Z,99510.19
2023-03-24T19:12:55.742Z,99509.38
2023-03-24T19:15:30.114Z,99506.41
2023-03-24T19:18:03.820Z,99505.56
2023-03-24T19:20:37.952Z,99503.19
2023-03-24T19:23:11.424Z,99499.78
2023-03-24T19:25:46.480Z,99487.31
2023-03-24T19:28:19.771Z,99497.44
2023-03-24T19:30:56.858Z,99492.22
2023-03-24T19:33:30.219Z,99493.47
2023-03-24T19:36:03.916Z,99494.03
2023-03-24T19:38:38.074Z,99495.59
2023-03-24T19:41:14.563Z,99491.25
2023-03-24T19:43:49.094Z,99496.84
2023-03-24T19:46:22.112Z,99493.63
2023-03-24T19:48:57.083Z,99493.78
2023-03-24T19:51:36.920Z,99492.38
2023-03-24T19:54:15.569Z,99487.44
2023-03-24T19:56:56.268Z,99493.91
2023-03-24T19:59:29.572Z,99494.59
2023-03-24T20:02:04.597Z,99494.59
2023-03-24T20:04:37.925Z,99491.50
2023-03-24T20:07:11.575Z,99496.56
2023-03-24T20:09:44.652Z,99492.75
2023-03-24T20:12:19.824Z,99497.53
2023-03-24T20:14:53.325Z,99494.00
2023-03-24T20:17:28.539Z,99501.03
2023-03-24T20:20:01.476Z,99501.03
2023-03-24T20:22:34.684Z,99499.06
2023-03-24T20:25:08.132Z,99493.31
2023-03-24T20:27:45.245Z,99504.81
2023-03-24T20:30:20.218Z,99500.19
2023-03-24T20:32:56.370Z,99504.13
2023-03-24T20:35:29.473Z,99494.00
2023-03-24T20:38:02.406Z,99489.41
2023-03-24T20:40:35.570Z,99485.31
2023-03-24T20:43:10.789Z,99492.34
2023-03-24T20:45:43.704Z,99486.25
2023-03-24T20:48:16.788Z,99488.47
2023-03-24T20:50:49.827Z,99480.69
2023-03-24T20:53:22.917Z,99477.19
2023-03-24T20:55:59.689Z,99472.81
2023-03-24T20:58:34.776Z,99467.97
2023-03-24T21:01:08.801Z,99474.00
2023-03-24T21:03:41.790Z,99470.72
2023-03-24T21:06:15.304Z,99474.94
2023-03-24T21:08:49.277Z,99475.06
2023-03-24T21:11:22.430Z,99471.03
2023-03-24T21:13:57.168Z,99462.03
2023-03-24T21:16:33.692Z,99469.19
2023-03-24T21:19:07.337Z,99470.72
2023-03-24T21:21:42.853Z,99473.47
2023-03-24T21:24:16.198Z,99473.28
2023-03-24T21:26:50.884Z,99474.28
2023-03-24T21:29:26.718Z,99467.66
2023-03-24T21:31:59.649Z,99472.28
2023-03-24T21:34:32.983Z,99474.09
2023-03-24T21:37:06.251Z,99467.53
2023-03-24T21:39:39.375Z,99464.47
2023-03-24T21:42:15.412Z,99448.78
2023-03-24T21:44:50.698Z,99449.75
2023-03-24T21:47:25.374Z,99457.06
2023-03-24T21:49:59.141Z,99451.13
2023-03-24T21:52:36.423Z,99452.22
2023-03-24T21:55:10.479Z,99448.03
2023-03-24T21:57:43.818Z,99450.13
2023-03-24T22:00:19.591Z,99445.31
2023-03-24T22:02:53.586Z,99453.81
2023-03-24T22:05:27.870Z,99454.66
2023-03-24T22:08:02.588Z,99440.22
2023-03-24T22:10:36.333Z,99447.09
2023-03-24T22:13:10.924Z,99449.19
2023-03-24T22:15:46.000Z,99440.34
2023-03-24T22:18:19.128Z,99439.38
2023-03-24T22:20:55.900Z,99442.25
2023-03-24T22:23:32.813Z,99433.16
2023-03-24T22:26:07.229Z,99426.72
2023-03-24T22:28:40.839Z,99427.56
2023-03-24T22:31:16.253Z,99429.50
2023-03-24T22:33:49.770Z,99431.28
2023-03-24T22:36:22.791Z,99432.28
2023-03-24T22:38:56.228Z,99433.31
2023-03-24T22:41:29.448Z,99436.09
2023-03-24T22:44:02.828Z,99435.94
2023-03-24T22:46:37.655Z,99443.56
2023-03-24T22:49:10.673Z,99440.00
2023-03-24T22:51:43.487Z,99444.22
2023-03-24T22:54:16.394Z,99436.09
2023-03-24T22:56:49.426Z,99433.66
2023-03-24T22:59:24.157Z,99433.19
2023-03-24T23:02:08.686Z,99433.72
2023-03-24T23:04:44.974Z,99431.41
2023-03-24T23:07:18.590Z,99424.38
2023-03-24T23:09:53.378Z,99437.66
2023-03-24T23:12:27.650Z,99433.41
2023-03-24T23:15:01.468Z,99433.75
2023-03-24T23:17:36.192Z,99374.13
2023-03-24T23:20:10.666Z,99434.53
2023-03-24T23:22:44.084Z,99434.59
2023-03-24T23:25:19.156Z,99439.91
2023-03-24T23:27:52.433Z,99443.78
2023-03-24T23:30:26.581Z,99434.97
2023-03-24T23:33:04.207Z,99433.81
2023-03-24T23:35:38.506Z,99430.78
2023-03-24T23:38:11.566Z,99434.72
2023-03-24T23:40:44.641Z,99421.44
2023-03-24T23:43:17.531Z,99419.59
2023-03-24T23:45:50.736Z,99415.00
2023-03-24T23:48:26.106Z,99415.00
2023-03-24T23:51:00.194Z,99415.84
2023-03-24T23:53:33.090Z,99419.13
2023-03-24T23:56:07.841Z,99418.06
2023-03-24T23:58:41.547Z,99412.13
